sensor_id;sensor_type;location;lat;lon;timestamp;P1;durP1;ratioP1;P2;durP2;ratioP2
22967;SDS011;11650;48.106;-1.696;2022-09-01T00:02:11;15.07;;;9.23;;
22967;SDS011;11650;48.106;-1.696;2022-09-01T00:04:39;13.07;;;8.00;;
22967;SDS011;11650;48.106;-1.696;2022-09-01T00:07:08;12.80;;;8.40;;
22967;SDS011;11650;48.106;-1.696;2022-09-01T00:09:36;15.33;;;9.33;;
22967;SDS011;11650;48.106;-1.696;2022-09-01T00:12:02;15.30;;;8.57;;
22967;SDS011;11650;48.106;-1.696;2022-09-01T00:14:30;10.17;;;7.97;;
22967;SDS011;11650;48.106;-1.696;2022-09-01T00:16:58;14.53;;;9.10;;
22967;SDS011;11650;48.106;-1.696;2022-09-01T00:19:24;15.87;;;9.50;;
22967;SDS011;11650;48.106;-1.696;2022-09-01T00:21:50;15.13;;;8.57;;
22967;SDS011;11650;48.106;-1.696;2022-09-01T00:24:17;18.67;;;9.40;;
22967;SDS011;11650;48.106;-1.696;2022-09-01T00:26:44;14.53;;;9.53;;
22967;SDS011;11650;48.106;-1.696;2022-09-01T00:29:10;18.47;;;11.33;;
22967;SDS011;11650;48.106;-1.696;2022-09-01T00:31:36;16.40;;;9.77;;
22967;SDS011;11650;48.106;-1.696;2022-09-01T00:34:02;13.20;;;9.07;;
22967;SDS011;11650;48.106;-1.696;2022-09-01T00:36:28;14.67;;;8.53;;
22967;SDS011;11650;48.106;-1.696;2022-09-01T00:38:54;15.03;;;9.43;;
22967;SDS011;11650;48.106;-1.696;2022-09-01T00:41:21;16.77;;;9.67;;
22967;SDS011;11650;48.106;-1.696;2022-09-01T00:43:52;15.63;;;10.23;;
22967;SDS011;11650;48.106;-1.696;2022-09-01T00:46:21;16.23;;;9.80;;
22967;SDS011;11650;48.106;-1.696;2022-09-01T00:48:52;15.17;;;10.03;;
22967;SDS011;11650;48.106;-1.696;2022-09-01T00:51:20;19.13;;;9.33;;
22967;SDS011;11650;48.106;-1.696;2022-09-01T00:53:46;16.10;;;9.83;;
22967;SDS011;11650;48.106;-1.696;2022-09-01T00:56:13;17.87;;;10.20;;
22967;SDS011;11650;48.106;-1.696;2022-09-01T00:58:39;15.17;;;9.47;;
22967;SDS011;11650;48.106;-1.696;2022-09-01T01:01:06;15.73;;;10.20;;
22967;SDS011;11650;48.106;-1.696;2022-09-01T01:03:33;15.63;;;10.33;;
22967;SDS011;11650;48.106;-1.696;2022-09-01T01:06:00;16.20;;;10.40;;
22967;SDS011;11650;48.106;-1.696;2022-09-01T01:08:33;21.47;;;10.17;;
22967;SDS011;11650;48.106;-1.696;2022-09-01T01:11:03;16.80;;;10.37;;
22967;SDS011;11650;48.106;-1.696;2022-09-01T01:13:31;17.97;;;10.87;;
22967;SDS011;11650;48.106;-1.696;2022-09-01T01:16:05;16.17;;;10.43;;
22967;SDS011;11650;48.106;-1.696;2022-09-01T01:18:32;20.83;;;10.60;;
22967;SDS011;11650;48.106;-1.696;2022-09-01T01:21:04;15.60;;;10.00;;
22967;SDS011;11650;48.106;-1.696;2022-09-01T01:23:52;16.00;;;10.73;;
22967;SDS011;11650;48.106;-1.696;2022-09-01T01:26:26;26.30;;;10.40;;
22967;SDS011;11650;48.106;-1.696;2022-09-01T01:28:52;20.17;;;11.47;;
22967;SDS011;11650;48.106;-1.696;2022-09-01T01:31:19;16.60;;;10.67;;
22967;SDS011;11650;48.106;-1.696;2022-09-01T01:33:49;23.20;;;13.43;;
22967;SDS011;11650;48.106;-1.696;2022-09-01T01:36:18;17.33;;;11.50;;
22967;SDS011;11650;48.106;-1.696;2022-09-01T01:38:57;22.03;;;11.53;;
22967;SDS011;11650;48.106;-1.696;2022-09-01T01:41:32;14.33;;;10.90;;
22967;SDS011;11650;48.106;-1.696;2022-09-01T01:44:00;14.73;;;11.07;;
22967;SDS011;11650;48.106;-1.696;2022-09-01T01:46:28;20.37;;;11.47;;
22967;SDS011;11650;48.106;-1.696;2022-09-01T01:48:55;19.20;;;10.40;;
22967;SDS011;11650;48.106;-1.696;2022-09-01T01:51:21;19.67;;;10.17;;
22967;SDS011;11650;48.106;-1.696;2022-09-01T01:53:51;15.57;;;9.50;;
22967;SDS011;11650;48.106;-1.696;2022-09-01T01:56:21;17.87;;;9.67;;
22967;SDS011;11650;48.106;-1.696;2022-09-01T01:58:51;13.60;;;8.93;;
22967;SDS011;11650;48.106;-1.696;2022-09-01T02:01:18;16.17;;;9.87;;
22967;SDS011;11650;48.106;-1.696;2022-09-01T02:03:46;15.23;;;9.07;;
22967;SDS011;11650;48.106;-1.696;2022-09-01T02:06:11;17.57;;;9.80;;
22967;SDS011;11650;48.106;-1.696;2022-09-01T02:08:38;20.77;;;9.90;;
22967;SDS011;11650;48.106;-1.696;2022-09-01T02:11:05;19.67;;;10.20;;
22967;SDS011;11650;48.106;-1.696;2022-09-01T02:13:32;17.03;;;10.37;;
22967;SDS011;11650;48.106;-1.696;2022-09-01T02:16:02;22.33;;;9.80;;
22967;SDS011;11650;48.106;-1.696;2022-09-01T02:18:39;19.27;;;10.23;;
22967;SDS011;11650;48.106;-1.696;2022-09-01T02:21:08;14.77;;;9.93;;
22967;SDS011;11650;48.106;-1.696;2022-09-01T02:23:37;17.37;;;10.63;;
22967;SDS011;11650;48.106;-1.696;2022-09-01T02:26:04;17.30;;;10.87;;
22967;SDS011;11650;48.106;-1.696;2022-09-01T02:28:31;14.43;;;11.43;;
22967;SDS011;11650;48.106;-1.696;2022-09-01T02:31:01;17.10;;;10.60;;
22967;SDS011;11650;48.106;-1.696;2022-09-01T02:33:29;17.13;;;10.50;;
22967;SDS011;11650;48.106;-1.696;2022-09-01T02:35:57;16.90;;;11.87;;
22967;SDS011;11650;48.106;-1.696;2022-09-01T02:38:25;18.50;;;11.00;;
22967;SDS011;11650;48.106;-1.696;2022-09-01T02:40:54;19.27;;;11.33;;
22967;SDS011;11650;48.106;-1.696;2022-09-01T02:43:21;21.53;;;11.83;;
22967;SDS011;11650;48.106;-1.696;2022-09-01T02:45:47;23.93;;;12.10;;
22967;SDS011;11650;48.106;-1.696;2022-09-01T02:48:16;18.40;;;11.80;;
22967;SDS011;11650;48.106;-1.696;2022-09-01T02:50:42;19.77;;;12.60;;
22967;SDS011;11650;48.106;-1.696;2022-09-01T02:53:08;23.73;;;12.27;;
22967;SDS011;11650;48.106;-1.696;2022-09-01T02:55:36;22.03;;;12.70;;
22967;SDS011;11650;48.106;-1.696;2022-09-01T02:58:03;21.80;;;11.83;;
22967;SDS011;11650;48.106;-1.696;2022-09-01T03:00:32;21.33;;;11.63;;
22967;SDS011;11650;48.106;-1.696;2022-09-01T03:03:01;23.20;;;12.70;;
22967;SDS011;11650;48.106;-1.696;2022-09-01T03:05:28;22.77;;;11.50;;
22967;SDS011;11650;48.106;-1.696;2022-09-01T03:08:00;21.43;;;12.37;;
22967;SDS011;11650;48.106;-1.696;2022-09-01T03:10:30;19.03;;;12.47;;
22967;SDS011;11650;48.106;-1.696;2022-09-01T03:13:21;20.77;;;11.90;;
22967;SDS011;11650;48.106;-1.696;2022-09-01T03:15:47;24.97;;;12.07;;
22967;SDS011;11650;48.106;-1.696;2022-09-01T03:18:15;23.63;;;12.23;;
22967;SDS011;11650;48.106;-1.696;2022-09-01T03:20:42;20.87;;;12.27;;
22967;SDS011;11650;48.106;-1.696;2022-09-01T03:23:11;17.40;;;11.63;;
22967;SDS011;11650;48.106;-1.696;2022-09-01T03:25:39;19.73;;;12.50;;
22967;SDS011;11650;48.106;-1.696;2022-09-01T03:28:07;20.53;;;13.13;;
22967;SDS011;11650;48.106;-1.696;2022-09-01T03:30:34;20.47;;;12.00;;
22967;SDS011;11650;48.106;-1.696;2022-09-01T03:33:03;23.23;;;13.60;;
22967;SDS011;11650;48.106;-1.696;2022-09-01T03:35:29;21.17;;;12.97;;
22967;SDS011;11650;48.106;-1.696;2022-09-01T03:37:56;23.60;;;13.20;;
22967;SDS011;11650;48.106;-1.696;2022-09-01T03:40:23;25.73;;;12.20;;
22967;SDS011;11650;48.106;-1.696;2022-09-01T03:42:52;22.53;;;12.70;;
22967;SDS011;11650;48.106;-1.696;2022-09-01T03:45:19;19.90;;;12.30;;
22967;SDS011;11650;48.106;-1.696;2022-09-01T03:47:45;26.00;;;13.17;;
22967;SDS011;11650;48.106;-1.696;2022-09-01T03:50:17;20.97;;;13.33;;
22967;SDS011;11650;48.106;-1.696;2022-09-01T03:52:50;23.67;;;13.73;;
22967;SDS011;11650;48.106;-1.696;2022-09-01T03:55:19;20.77;;;13.97;;
22967;SDS011;11650;48.106;-1.696;2022-09-01T03:57:55;21.80;;;14.17;;
22967;SDS011;11650;48.106;-1.696;2022-09-01T04:00:29;20.20;;;13.47;;
22967;SDS011;11650;48.106;-1.696;2022-09-01T04:02:57;25.63;;;14.60;;
22967;SDS011;11650;48.106;-1.696;2022-09-01T04:05:23;28.43;;;15.10;;
22967;SDS011;11650;48.106;-1.696;2022-09-01T04:07:52;19.87;;;13.30;;
22967;SDS011;11650;48.106;-1.696;2022-09-01T04:10:21;24.23;;;14.30;;
22967;SDS011;11650;48.106;-1.696;2022-09-01T04:12:48;24.70;;;14.67;;
22967;SDS011;11650;48.106;-1.696;2022-09-01T04:15:14;21.67;;;13.67;;
22967;SDS011;11650;48.106;-1.696;2022-09-01T04:17:42;22.63;;;13.63;;
22967;SDS011;11650;48.106;-1.696;2022-09-01T04:20:26;18.10;;;12.60;;
22967;SDS011;11650;48.106;-1.696;2022-09-01T04:22:53;22.47;;;13.77;;
22967;SDS011;11650;48.106;-1.696;2022-09-01T04:25:20;21.90;;;14.27;;
22967;SDS011;11650;48.106;-1.696;2022-09-01T04:27:49;24.27;;;14.93;;
22967;SDS011;11650;48.106;-1.696;2022-09-01T04:30:19;23.13;;;14.07;;
22967;SDS011;11650;48.106;-1.696;2022-09-01T04:32:49;24.67;;;14.63;;
22967;SDS011;11650;48.106;-1.696;2022-09-01T04:35:16;20.80;;;13.13;;
22967;SDS011;11650;48.106;-1.696;2022-09-01T04:37:42;20.27;;;13.97;;
22967;SDS011;11650;48.106;-1.696;2022-09-01T04:40:11;24.97;;;14.87;;
22967;SDS011;11650;48.106;-1.696;2022-09-01T04:42:38;23.50;;;14.53;;
22967;SDS011;11650;48.106;-1.696;2022-09-01T04:45:05;26.87;;;15.67;;
22967;SDS011;11650;48.106;-1.696;2022-09-01T04:47:35;21.80;;;15.17;;
22967;SDS011;11650;48.106;-1.696;2022-09-01T04:50:06;25.77;;;15.70;;
22967;SDS011;11650;48.106;-1.696;2022-09-01T04:52:38;24.07;;;15.70;;
22967;SDS011;11650;48.106;-1.696;2022-09-01T04:55:06;24.97;;;17.03;;
22967;SDS011;11650;48.106;-1.696;2022-09-01T04:57:33;21.83;;;15.83;;
22967;SDS011;11650;48.106;-1.696;2022-09-01T04:59:59;26.10;;;15.47;;
22967;SDS011;11650;48.106;-1.696;2022-09-01T05:02:25;21.20;;;15.57;;
22967;SDS011;11650;48.106;-1.696;2022-09-01T05:04:53;23.53;;;16.20;;
22967;SDS011;11650;48.106;-1.696;2022-09-01T05:07:22;22.93;;;15.47;;
22967;SDS011;11650;48.106;-1.696;2022-09-01T05:09:48;20.53;;;15.27;;
22967;SDS011;11650;48.106;-1.696;2022-09-01T05:12:14;24.70;;;15.23;;
22967;SDS011;11650;48.106;-1.696;2022-09-01T05:14:41;22.27;;;15.07;;
22967;SDS011;11650;48.106;-1.696;2022-09-01T05:17:12;22.40;;;15.03;;
22967;SDS011;11650;48.106;-1.696;2022-09-01T05:19:39;23.43;;;14.47;;
22967;SDS011;11650;48.106;-1.696;2022-09-01T05:22:07;21.03;;;13.50;;
22967;SDS011;11650;48.106;-1.696;2022-09-01T05:24:34;21.70;;;15.03;;
22967;SDS011;11650;48.106;-1.696;2022-09-01T05:27:03;24.03;;;14.90;;
22967;SDS011;11650;48.106;-1.696;2022-09-01T05:29:29;21.67;;;14.20;;
22967;SDS011;11650;48.106;-1.696;2022-09-01T05:31:55;22.70;;;14.80;;
22967;SDS011;11650;48.106;-1.696;2022-09-01T05:34:22;21.80;;;14.50;;
22967;SDS011;11650;48.106;-1.696;2022-09-01T05:36:53;19.80;;;14.43;;
22967;SDS011;11650;48.106;-1.696;2022-09-01T05:39:22;22.27;;;14.80;;
22967;SDS011;11650;48.106;-1.696;2022-09-01T05:41:49;24.57;;;14.97;;
22967;SDS011;11650;48.106;-1.696;2022-09-01T05:44:15;25.33;;;15.70;;
22967;SDS011;11650;48.106;-1.696;2022-09-01T05:46:42;20.93;;;14.37;;
22967;SDS011;11650;48.106;-1.696;2022-09-01T05:49:08;24.27;;;14.70;;
22967;SDS011;11650;48.106;-1.696;2022-09-01T05:51:38;20.03;;;14.97;;
22967;SDS011;11650;48.106;-1.696;2022-09-01T05:54:10;22.37;;;14.20;;
22967;SDS011;11650;48.106;-1.696;2022-09-01T05:56:38;21.10;;;14.43;;
22967;SDS011;11650;48.106;-1.696;2022-09-01T05:59:04;20.00;;;14.20;;
22967;SDS011;11650;48.106;-1.696;2022-09-01T06:01:31;22.00;;;13.43;;
22967;SDS011;11650;48.106;-1.696;2022-09-01T06:03:57;20.30;;;12.27;;
22967;SDS011;11650;48.106;-1.696;2022-09-01T06:06:26;22.40;;;12.07;;
22967;SDS011;11650;48.106;-1.696;2022-09-01T06:08:53;19.53;;;10.53;;
22967;SDS011;11650;48.106;-1.696;2022-09-01T06:11:23;14.93;;;10.17;;
22967;SDS011;11650;48.106;-1.696;2022-09-01T06:13:50;22.00;;;10.00;;
22967;SDS011;11650;48.106;-1.696;2022-09-01T06:16:22;18.07;;;9.30;;
22967;SDS011;11650;48.106;-1.696;2022-09-01T06:18:48;17.03;;;8.57;;
22967;SDS011;11650;48.106;-1.696;2022-09-01T06:21:17;16.40;;;7.90;;
22967;SDS011;11650;48.106;-1.696;2022-09-01T06:23:45;18.17;;;8.40;;
22967;SDS011;11650;48.106;-1.696;2022-09-01T06:26:31;20.00;;;6.87;;
22967;SDS011;11650;48.106;-1.696;2022-09-01T06:29:00;14.20;;;7.30;;
22967;SDS011;11650;48.106;-1.696;2022-09-01T06:31:30;19.00;;;7.77;;
22967;SDS011;11650;48.106;-1.696;2022-09-01T06:33:58;18.73;;;7.23;;
22967;SDS011;11650;48.106;-1.696;2022-09-01T06:36:25;12.50;;;6.53;;
22967;SDS011;11650;48.106;-1.696;2022-09-01T06:38:52;12.77;;;6.73;;
22967;SDS011;11650;48.106;-1.696;2022-09-01T06:41:19;19.30;;;6.70;;
22967;SDS011;11650;48.106;-1.696;2022-09-01T06:43:48;16.37;;;6.50;;
22967;SDS011;11650;48.106;-1.696;2022-09-01T06:46:16;13.10;;;6.53;;
22967;SDS011;11650;48.106;-1.696;2022-09-01T06:48:44;12.37;;;6.63;;
22967;SDS011;11650;48.106;-1.696;2022-09-01T06:51:13;13.70;;;6.07;;
22967;SDS011;11650;48.106;-1.696;2022-09-01T06:53:43;11.10;;;6.20;;
22967;SDS011;11650;48.106;-1.696;2022-09-01T06:56:15;15.83;;;6.03;;
22967;SDS011;11650;48.106;-1.696;2022-09-01T06:58:43;15.07;;;6.37;;
22967;SDS011;11650;48.106;-1.696;2022-09-01T07:01:12;14.20;;;5.47;;
22967;SDS011;11650;48.106;-1.696;2022-09-01T07:03:42;17.07;;;5.87;;
22967;SDS011;11650;48.106;-1.696;2022-09-01T07:06:09;18.77;;;5.83;;
22967;SDS011;11650;48.106;-1.696;2022-09-01T07:08:36;14.93;;;6.40;;
22967;SDS011;11650;48.106;-1.696;2022-09-01T07:11:04;15.60;;;5.90;;
22967;SDS011;11650;48.106;-1.696;2022-09-01T07:13:40;14.87;;;6.20;;
22967;SDS011;11650;48.106;-1.696;2022-09-01T07:16:14;17.77;;;5.90;;
22967;SDS011;11650;48.106;-1.696;2022-09-01T07:18:44;15.77;;;6.53;;
22967;SDS011;11650;48.106;-1.696;2022-09-01T07:21:09;21.90;;;10.97;;
22967;SDS011;11650;48.106;-1.696;2022-09-01T07:23:35;14.90;;;6.03;;
22967;SDS011;11650;48.106;-1.696;2022-09-01T07:26:04;18.23;;;7.27;;
22967;SDS011;11650;48.106;-1.696;2022-09-01T07:28:31;17.93;;;6.23;;
22967;SDS011;11650;48.106;-1.696;2022-09-01T07:30:57;14.83;;;6.60;;
22967;SDS011;11650;48.106;-1.696;2022-09-01T07:33:24;18.17;;;6.10;;
22967;SDS011;11650;48.106;-1.696;2022-09-01T07:35:51;15.87;;;6.50;;
22967;SDS011;11650;48.106;-1.696;2022-09-01T07:38:19;10.10;;;5.80;;
22967;SDS011;11650;48.106;-1.696;2022-09-01T07:40:46;22.43;;;6.70;;
22967;SDS011;11650;48.106;-1.696;2022-09-01T07:43:16;17.97;;;5.80;;
22967;SDS011;11650;48.106;-1.696;2022-09-01T07:45:46;19.20;;;6.70;;
22967;SDS011;11650;48.106;-1.696;2022-09-01T07:48:17;15.00;;;6.70;;
22967;SDS011;11650;48.106;-1.696;2022-09-01T07:50:44;16.93;;;6.83;;
22967;SDS011;11650;48.106;-1.696;2022-09-01T07:53:15;17.83;;;6.93;;
22967;SDS011;11650;48.106;-1.696;2022-09-01T07:55:43;15.70;;;6.37;;
22967;SDS011;11650;48.106;-1.696;2022-09-01T07:58:10;13.93;;;6.40;;
22967;SDS011;11650;48.106;-1.696;2022-09-01T08:00:40;16.53;;;7.03;;
22967;SDS011;11650;48.106;-1.696;2022-09-01T08:03:13;15.07;;;7.17;;
22967;SDS011;11650;48.106;-1.696;2022-09-01T08:05:41;18.13;;;6.97;;
22967;SDS011;11650;48.106;-1.696;2022-09-01T08:08:07;13.67;;;6.53;;
22967;SDS011;11650;48.106;-1.696;2022-09-01T08:10:33;14.67;;;7.00;;
22967;SDS011;11650;48.106;-1.696;2022-09-01T08:13:02;19.43;;;7.40;;
22967;SDS011;11650;48.106;-1.696;2022-09-01T08:15:28;13.80;;;7.47;;
22967;SDS011;11650;48.106;-1.696;2022-09-01T08:17:54;16.20;;;6.73;;
22967;SDS011;11650;48.106;-1.696;2022-09-01T08:20:19;16.87;;;7.03;;
22967;SDS011;11650;48.106;-1.696;2022-09-01T08:22:45;15.47;;;6.60;;
22967;SDS011;11650;48.106;-1.696;2022-09-01T08:25:11;18.83;;;7.20;;
22967;SDS011;11650;48.106;-1.696;2022-09-01T08:27:37;17.77;;;6.93;;
22967;SDS011;11650;48.106;-1.696;2022-09-01T08:30:07;15.10;;;6.97;;
22967;SDS011;11650;48.106;-1.696;2022-09-01T08:32:35;17.50;;;7.23;;
22967;SDS011;11650;48.106;-1.696;2022-09-01T08:35:02;15.10;;;7.00;;
22967;SDS011;11650;48.106;-1.696;2022-09-01T08:37:29;18.27;;;7.70;;
22967;SDS011;11650;48.106;-1.696;2022-09-01T08:39:55;19.80;;;7.77;;
22967;SDS011;11650;48.106;-1.696;2022-09-01T08:44:56;15.40;;;7.10;;
22967;SDS011;11650;48.106;-1.696;2022-09-01T08:47:29;19.00;;;7.50;;
22967;SDS011;11650;48.106;-1.696;2022-09-01T08:49:55;19.73;;;7.57;;
22967;SDS011;11650;48.106;-1.696;2022-09-01T08:52:25;14.00;;;7.47;;
22967;SDS011;11650;48.106;-1.696;2022-09-01T08:55:02;14.00;;;7.50;;
22967;SDS011;11650;48.106;-1.696;2022-09-01T08:57:36;14.27;;;7.30;;
22967;SDS011;11650;48.106;-1.696;2022-09-01T09:00:04;13.97;;;7.90;;
22967;SDS011;11650;48.106;-1.696;2022-09-01T09:08:16;15.70;;;8.50;;
22967;SDS011;11650;48.106;-1.696;2022-09-01T09:16:39;16.37;;;7.50;;
22967;SDS011;11650;48.106;-1.696;2022-09-01T09:21:46;16.07;;;8.50;;
22967;SDS011;11650;48.106;-1.696;2022-09-01T09:27:18;14.83;;;7.47;;
22967;SDS011;11650;48.106;-1.696;2022-09-01T09:29:48;15.20;;;8.10;;
22967;SDS011;11650;48.106;-1.696;2022-09-01T09:32:17;17.87;;;8.50;;
22967;SDS011;11650;48.106;-1.696;2022-09-01T09:34:44;22.70;;;9.03;;
22967;SDS011;11650;48.106;-1.696;2022-09-01T09:40:00;25.80;;;8.57;;
22967;SDS011;11650;48.106;-1.696;2022-09-01T09:42:26;20.30;;;8.13;;
22967;SDS011;11650;48.106;-1.696;2022-09-01T09:44:52;16.43;;;8.33;;
22967;SDS011;11650;48.106;-1.696;2022-09-01T09:47:39;19.37;;;8.40;;
22967;SDS011;11650;48.106;-1.696;2022-09-01T09:52:43;15.23;;;8.53;;
22967;SDS011;11650;48.106;-1.696;2022-09-01T09:55:19;20.13;;;7.93;;
22967;SDS011;11650;48.106;-1.696;2022-09-01T09:57:57;21.87;;;9.33;;
22967;SDS011;11650;48.106;-1.696;2022-09-01T10:00:29;21.57;;;9.10;;
22967;SDS011;11650;48.106;-1.696;2022-09-01T10:02:59;19.07;;;9.23;;
22967;SDS011;11650;48.106;-1.696;2022-09-01T10:05:38;16.43;;;9.10;;
22967;SDS011;11650;48.106;-1.696;2022-09-01T10:08:10;15.30;;;8.63;;
22967;SDS011;11650;48.106;-1.696;2022-09-01T10:10:45;16.30;;;8.60;;
22967;SDS011;11650;48.106;-1.696;2022-09-01T10:13:15;18.50;;;8.17;;
22967;SDS011;11650;48.106;-1.696;2022-09-01T10:15:48;14.07;;;8.53;;
22967;SDS011;11650;48.106;-1.696;2022-09-01T10:18:18;19.73;;;9.03;;
22967;SDS011;11650;48.106;-1.696;2022-09-01T10:20:56;17.67;;;8.73;;
22967;SDS011;11650;48.106;-1.696;2022-09-01T10:23:24;20.07;;;8.93;;
22967;SDS011;11650;48.106;-1.696;2022-09-01T10:25:51;18.77;;;9.00;;
22967;SDS011;11650;48.106;-1.696;2022-09-01T10:28:24;13.50;;;9.23;;
22967;SDS011;11650;48.106;-1.696;2022-09-01T10:30:52;18.63;;;8.87;;
22967;SDS011;11650;48.106;-1.696;2022-09-01T10:33:20;16.77;;;9.80;;
22967;SDS011;11650;48.106;-1.696;2022-09-01T10:35:48;19.40;;;9.70;;
22967;SDS011;11650;48.106;-1.696;2022-09-01T10:38:16;14.97;;;9.20;;
22967;SDS011;11650;48.106;-1.696;2022-09-01T10:40:52;14.97;;;8.90;;
22967;SDS011;11650;48.106;-1.696;2022-09-01T10:46:07;18.30;;;8.70;;
22967;SDS011;11650;48.106;-1.696;2022-09-01T10:48:33;16.23;;;8.57;;
22967;SDS011;11650;48.106;-1.696;2022-09-01T10:53:38;18.03;;;8.83;;
22967;SDS011;11650;48.106;-1.696;2022-09-01T11:04:11;14.90;;;9.30;;
22967;SDS011;11650;48.106;-1.696;2022-09-01T11:14:25;11.97;;;6.87;;
22967;SDS011;11650;48.106;-1.696;2022-09-01T11:17:15;12.60;;;6.60;;
22967;SDS011;11650;48.106;-1.696;2022-09-01T11:19:45;14.87;;;6.93;;
22967;SDS011;11650;48.106;-1.696;2022-09-01T11:30:16;12.67;;;6.97;;
22967;SDS011;11650;48.106;-1.696;2022-09-01T11:32:45;12.30;;;6.40;;
22967;SDS011;11650;48.106;-1.696;2022-09-01T11:35:15;7.90;;;5.57;;
22967;SDS011;11650;48.106;-1.696;2022-09-01T11:37:46;11.93;;;6.50;;
22967;SDS011;11650;48.106;-1.696;2022-09-01T11:40:17;12.23;;;6.20;;
22967;SDS011;11650;48.106;-1.696;2022-09-01T11:42:57;8.83;;;5.73;;
22967;SDS011;11650;48.106;-1.696;2022-09-01T11:45:27;9.93;;;6.30;;
22967;SDS011;11650;48.106;-1.696;2022-09-01T11:48:02;10.43;;;5.97;;
22967;SDS011;11650;48.106;-1.696;2022-09-01T11:50:37;10.50;;;6.30;;
22967;SDS011;11650;48.106;-1.696;2022-09-01T11:53:09;9.43;;;5.63;;
22967;SDS011;11650;48.106;-1.696;2022-09-01T11:55:42;9.40;;;5.60;;
22967;SDS011;11650;48.106;-1.696;2022-09-01T11:58:33;10.67;;;5.77;;
22967;SDS011;11650;48.106;-1.696;2022-09-01T12:03:39;10.83;;;6.53;;
22967;SDS011;11650;48.106;-1.696;2022-09-01T12:06:05;13.13;;;6.73;;
22967;SDS011;11650;48.106;-1.696;2022-09-01T12:08:40;15.53;;;6.80;;
22967;SDS011;11650;48.106;-1.696;2022-09-01T12:11:18;11.53;;;6.60;;
22967;SDS011;11650;48.106;-1.696;2022-09-01T12:16:28;11.20;;;6.63;;
22967;SDS011;11650;48.106;-1.696;2022-09-01T12:18:56;9.23;;;5.70;;
22967;SDS011;11650;48.106;-1.696;2022-09-01T12:21:27;12.37;;;5.70;;
22967;SDS011;11650;48.106;-1.696;2022-09-01T12:23:54;9.20;;;5.37;;
22967;SDS011;11650;48.106;-1.696;2022-09-01T12:26:43;10.07;;;6.30;;
22967;SDS011;11650;48.106;-1.696;2022-09-01T12:29:10;11.03;;;7.00;;
22967;SDS011;11650;48.106;-1.696;2022-09-01T12:31:41;9.80;;;6.00;;
22967;SDS011;11650;48.106;-1.696;2022-09-01T12:37:06;11.87;;;4.70;;
22967;SDS011;11650;48.106;-1.696;2022-09-01T12:39:50;8.30;;;4.30;;
22967;SDS011;11650;48.106;-1.696;2022-09-01T12:44:51;6.43;;;2.67;;
22967;SDS011;11650;48.106;-1.696;2022-09-01T12:50:00;4.40;;;2.67;;
22967;SDS011;11650;48.106;-1.696;2022-09-01T12:52:32;6.03;;;2.60;;
22967;SDS011;11650;48.106;-1.696;2022-09-01T12:57:28;5.18;;;2.80;;
22967;SDS011;11650;48.106;-1.696;2022-09-01T13:07:57;5.63;;;2.57;;
22967;SDS011;11650;48.106;-1.696;2022-09-01T13:10:26;3.97;;;2.27;;
22967;SDS011;11650;48.106;-1.696;2022-09-01T13:12:56;6.55;;;2.47;;
22967;SDS011;11650;48.106;-1.696;2022-09-01T13:15:22;5.40;;;2.40;;
22967;SDS011;11650;48.106;-1.696;2022-09-01T13:17:50;5.33;;;2.27;;
22967;SDS011;11650;48.106;-1.696;2022-09-01T13:20:18;5.30;;;2.43;;
22967;SDS011;11650;48.106;-1.696;2022-09-01T13:22:44;4.50;;;2.28;;
22967;SDS011;11650;48.106;-1.696;2022-09-01T13:25:11;7.07;;;2.42;;
22967;SDS011;11650;48.106;-1.696;2022-09-01T13:27:38;5.18;;;2.28;;
22967;SDS011;11650;48.106;-1.696;2022-09-01T13:30:08;3.70;;;2.10;;
22967;SDS011;11650;48.106;-1.696;2022-09-01T13:32:39;5.10;;;2.22;;
22967;SDS011;11650;48.106;-1.696;2022-09-01T13:35:06;2.95;;;2.00;;
22967;SDS011;11650;48.106;-1.696;2022-09-01T13:37:33;4.30;;;2.50;;
22967;SDS011;11650;48.106;-1.696;2022-09-01T13:39:59;4.90;;;2.00;;
22967;SDS011;11650;48.106;-1.696;2022-09-01T13:42:25;5.72;;;2.50;;
22967;SDS011;11650;48.106;-1.696;2022-09-01T13:44:51;5.47;;;2.20;;
22967;SDS011;11650;48.106;-1.696;2022-09-01T13:47:17;6.38;;;2.40;;
22967;SDS011;11650;48.106;-1.696;2022-09-01T13:49:43;7.75;;;2.50;;
22967;SDS011;11650;48.106;-1.696;2022-09-01T13:52:09;4.22;;;2.50;;
22967;SDS011;11650;48.106;-1.696;2022-09-01T13:54:35;6.35;;;2.40;;
22967;SDS011;11650;48.106;-1.696;2022-09-01T13:57:00;3.88;;;2.10;;
22967;SDS011;11650;48.106;-1.696;2022-09-01T13:59:26;4.90;;;2.42;;
22967;SDS011;11650;48.106;-1.696;2022-09-01T14:01:53;4.72;;;2.22;;
22967;SDS011;11650;48.106;-1.696;2022-09-01T14:04:19;5.35;;;2.72;;
22967;SDS011;11650;48.106;-1.696;2022-09-01T14:06:46;7.50;;;2.95;;
22967;SDS011;11650;48.106;-1.696;2022-09-01T14:09:13;5.68;;;2.90;;
22967;SDS011;11650;48.106;-1.696;2022-09-01T14:11:40;4.60;;;2.42;;
22967;SDS011;11650;48.106;-1.696;2022-09-01T14:14:06;5.18;;;2.58;;
22967;SDS011;11650;48.106;-1.696;2022-09-01T14:16:32;5.93;;;2.60;;
22967;SDS011;11650;48.106;-1.696;2022-09-01T14:18:57;6.60;;;2.80;;
22967;SDS011;11650;48.106;-1.696;2022-09-01T14:21:26;4.18;;;2.60;;
22967;SDS011;11650;48.106;-1.696;2022-09-01T14:23:52;4.53;;;2.72;;
22967;SDS011;11650;48.106;-1.696;2022-09-01T14:26:18;5.32;;;2.75;;
22967;SDS011;11650;48.106;-1.696;2022-09-01T14:28:44;5.40;;;3.10;;
22967;SDS011;11650;48.106;-1.696;2022-09-01T14:31:13;5.60;;;3.00;;
22967;SDS011;11650;48.106;-1.696;2022-09-01T14:33:40;5.70;;;2.97;;
22967;SDS011;11650;48.106;-1.696;2022-09-01T14:36:07;5.80;;;3.00;;
22967;SDS011;11650;48.106;-1.696;2022-09-01T14:38:39;5.30;;;2.80;;
22967;SDS011;11650;48.106;-1.696;2022-09-01T14:41:05;5.53;;;3.42;;
22967;SDS011;11650;48.106;-1.696;2022-09-01T14:43:30;5.68;;;3.13;;
22967;SDS011;11650;48.106;-1.696;2022-09-01T14:46:03;7.07;;;3.00;;
22967;SDS011;11650;48.106;-1.696;2022-09-01T14:48:32;5.47;;;3.22;;
22967;SDS011;11650;48.106;-1.696;2022-09-01T14:50:58;6.60;;;3.33;;
22967;SDS011;11650;48.106;-1.696;2022-09-01T14:53:25;4.40;;;3.20;;
22967;SDS011;11650;48.106;-1.696;2022-09-01T14:55:53;6.25;;;3.45;;
22967;SDS011;11650;48.106;-1.696;2022-09-01T14:58:19;4.65;;;3.50;;
22967;SDS011;11650;48.106;-1.696;2022-09-01T15:00:45;4.15;;;3.35;;
22967;SDS011;11650;48.106;-1.696;2022-09-01T15:03:11;4.65;;;3.10;;
22967;SDS011;11650;48.106;-1.696;2022-09-01T15:05:38;9.77;;;3.40;;
22967;SDS011;11650;48.106;-1.696;2022-09-01T15:08:04;5.63;;;3.08;;
22967;SDS011;11650;48.106;-1.696;2022-09-01T15:10:30;6.40;;;3.70;;
22967;SDS011;11650;48.106;-1.696;2022-09-01T15:12:56;6.57;;;3.67;;
22967;SDS011;11650;48.106;-1.696;2022-09-01T15:15:24;7.87;;;3.63;;
22967;SDS011;11650;48.106;-1.696;2022-09-01T15:17:51;6.27;;;3.73;;
22967;SDS011;11650;48.106;-1.696;2022-09-01T15:20:17;7.70;;;4.10;;
22967;SDS011;11650;48.106;-1.696;2022-09-01T15:23:02;8.50;;;4.60;;
22967;SDS011;11650;48.106;-1.696;2022-09-01T15:25:28;8.70;;;4.97;;
22967;SDS011;11650;48.106;-1.696;2022-09-01T15:27:53;8.63;;;4.23;;
22967;SDS011;11650;48.106;-1.696;2022-09-01T15:30:19;12.63;;;5.00;;
22967;SDS011;11650;48.106;-1.696;2022-09-01T15:32:48;10.27;;;5.03;;
22967;SDS011;11650;48.106;-1.696;2022-09-01T15:35:15;13.97;;;6.03;;
22967;SDS011;11650;48.106;-1.696;2022-09-01T15:37:41;13.27;;;5.60;;
22967;SDS011;11650;48.106;-1.696;2022-09-01T15:40:09;11.27;;;5.83;;
22967;SDS011;11650;48.106;-1.696;2022-09-01T15:42:35;11.50;;;5.93;;
22967;SDS011;11650;48.106;-1.696;2022-09-01T15:45:06;12.17;;;5.93;;
22967;SDS011;11650;48.106;-1.696;2022-09-01T15:47:34;8.63;;;5.97;;